Time;durP1;ratioP1;P1;durP2;ratioP2;P2;SDS_P1;SDS_P2;PMS_P1;PMS_P2;Temp;Humidity;BMP_temperature;BMP_pressure;BME280_temperature;BME280_humidity;BME280_pressure;Samples;Min_cycle;Max_cycle;Signal;HPM_P1;HPM_P2
2021/04/17 00:02:25;;;;;;;1.02;0.60;;;;;;;2.96;53.05;102794.00;2588065;55;20532;-71
2021/04/17 00:04:52;;;;;;;2.47;0.73;;;;;;;2.94;53.40;102787.84;2588199;55;20131;-70
2021/04/17 00:07:19;;;;;;;1.73;0.70;;;;;;;2.94;53.50;102787.84;2588256;55;20134;-69
2021/04/17 00:09:47;;;;;;;0.98;0.70;;;;;;;3.04;53.12;102797.44;2588193;55;20177;-69
2021/04/17 00:12:17;;;;;;;0.73;0.55;;;;;;;2.95;53.33;102795.75;2587909;55;20117;-70
2021/04/17 00:14:47;;;;;;;1.25;0.80;;;;;;;2.89;54.13;102796.66;2588296;55;20500;-71
2021/04/17 00:17:17;;;;;;;2.22;0.80;;;;;;;2.85;53.87;102794.97;2588199;55;20108;-71
2021/04/17 00:19:46;;;;;;;2.67;0.70;;;;;;;2.92;53.17;102786.13;2587673;55;20128;-72
2021/04/17 00:22:13;;;;;;;1.58;0.70;;;;;;;2.94;53.73;102791.34;2588496;55;20134;-72
2021/04/17 00:24:40;;;;;;;2.03;0.77;;;;;;;2.93;53.44;102794.88;2587882;55;20113;-70
2021/04/17 00:27:09;;;;;;;3.33;0.80;;;;;;;2.92;53.87;102796.66;2588036;55;21107;-70
2021/04/17 00:29:37;;;;;;;1.55;0.82;;;;;;;2.86;54.21;102788.81;2588215;55;20132;-69
2021/04/17 00:32:06;;;;;;;0.90;0.73;;;;;;;2.72;54.08;102773.09;2587853;55;20123;-70
2021/04/17 00:34:34;;;;;;;3.97;0.70;;;;;;;2.85;53.36;102787.06;2587760;55;20130;-70
2021/04/17 00:37:01;;;;;;;0.93;0.62;;;;;;;2.85;54.36;102794.97;2588230;55;20134;-72
2021/04/17 00:39:28;;;;;;;2.28;0.90;;;;;;;2.84;53.48;102794.97;2588129;55;20776;-72
2021/04/17 00:41:56;;;;;;;0.75;0.55;;;;;;;2.93;54.52;102789.59;2588137;55;20125;-69
2021/04/17 00:44:24;;;;;;;1.90;0.80;;;;;;;2.93;53.60;102794.88;2587904;55;20113;-69
2021/04/17 00:46:51;;;;;;;0.90;0.60;;;;;;;2.90;53.70;102792.28;2588231;55;20135;-69
2021/04/17 00:49:19;;;;;;;1.37;0.60;;;;;;;2.84;54.41;102787.94;2587738;55;20177;-72
2021/04/17 00:51:47;;;;;;;1.08;0.68;;;;;;;2.87;53.83;102798.44;2588006;55;20116;-72
2021/04/17 00:54:14;;;;;;;1.35;0.70;;;;;;;2.85;53.47;102788.81;2587929;55;20124;-71
2021/04/17 00:56:41;;;;;;;1.60;0.70;;;;;;;2.75;55.16;102783.63;2587713;55;20673;-72
2021/04/17 00:59:09;;;;;;;1.70;0.70;;;;;;;2.74;54.35;102786.28;2588017;55;20132;-70
2021/04/17 01:01:38;;;;;;;2.28;0.77;;;;;;;2.76;54.76;102793.31;2588063;55;20495;-69
2021/04/17 01:04:10;;;;;;;1.30;0.70;;;;;;;2.72;55.42;102788.94;2587498;55;20464;-72
2021/04/17 01:06:41;;;;;;;1.12;0.68;;;;;;;2.53;54.93;102750.44;2588128;55;20136;-70
2021/04/17 01:09:13;;;;;;;1.27;0.57;;;;;;;2.86;54.51;102796.72;2587752;55;20613;-69
2021/04/17 01:11:46;;;;;;;1.40;0.60;;;;;;;2.80;55.23;102790.62;2587742;55;20516;-69
2021/04/17 01:14:15;;;;;;;0.75;0.60;;;;;;;2.72;55.30;102794.19;2588018;55;20135;-71
2021/04/17 01:16:46;;;;;;;1.20;0.70;;;;;;;2.73;55.39;102785.41;2588196;55;20653;-71
2021/04/17 01:19:23;;;;;;;2.37;1.25;;;;;;;2.69;55.57;102788.06;2587703;55;20117;-69
2021/04/17 01:21:50;;;;;;;1.42;0.52;;;;;;;2.60;55.66;102783.75;2587713;55;20117;-71
2021/04/17 01:24:22;;;;;;;1.55;0.75;;;;;;;2.61;56.58;102783.75;2587593;55;20112;-70
2021/04/17 01:26:50;;;;;;;2.35;0.75;;;;;;;2.63;55.31;102784.62;2587477;55;20126;-72
2021/04/17 01:29:19;;;;;;;2.47;1.35;;;;;;;2.65;55.56;102787.22;2588064;55;20129;-72
2021/04/17 01:31:46;;;;;;;1.75;0.50;;;;;;;2.58;55.73;102789.03;2588146;55;20172;-70
2021/04/17 01:34:13;;;;;;;2.12;0.62;;;;;;;2.56;56.11;102782.91;2587355;55;20116;-70
2021/04/17 01:36:41;;;;;;;1.70;0.80;;;;;;;2.53;56.30;102788.22;2588334;55;20130;-70
2021/04/17 01:39:10;;;;;;;1.75;0.80;;;;;;;2.49;56.51;102787.38;2587813;55;20659;-72
2021/04/17 01:41:43;;;;;;;1.45;0.80;;;;;;;2.48;57.55;102785.63;2587574;55;20127;-71
2021/04/17 01:44:14;;;;;;;0.98;0.50;;;;;;;2.55;56.07;102781.16;2587832;55;20147;-70
2021/04/17 01:46:44;;;;;;;1.23;0.93;;;;;;;2.49;56.77;102781.19;2587609;55;20150;-70
2021/04/17 01:49:14;;;;;;;0.80;0.70;;;;;;;2.40;57.49;102776.91;2587649;55;20123;-70
2021/04/17 01:51:44;;;;;;;2.45;1.55;;;;;;;2.40;57.56;102786.53;2588171;55;20618;-70
2021/04/17 01:54:19;;;;;;;1.45;0.70;;;;;;;2.36;57.72;102776.03;2587744;55;20112;-72
2021/04/17 01:56:48;;;;;;;1.37;0.70;;;;;;;2.30;57.89;102776.06;2587596;55;20607;-70
2021/04/17 01:59:20;;;;;;;1.98;0.65;;;;;;;2.23;57.91;102779.66;2587669;55;20116;-70
2021/04/17 02:01:47;;;;;;;;;;;;;;;2.32;56.36;102774.31;2588018;55;20412;-70
2021/04/17 02:04:15;;;;;;;1.62;0.57;;;;;;;2.15;57.93;102781.47;2587513;55;20518;-70
2021/04/17 02:06:42;;;;;;;1.48;0.73;;;;;;;2.12;58.34;102777.09;2587908;55;20135;-72
2021/04/17 02:09:10;;;;;;;2.12;1.12;;;;;;;2.13;58.56;102780.59;2587632;55;20132;-72
2021/04/17 02:11:38;;;;;;;2.50;1.20;;;;;;;2.05;59.32;102786.78;2587788;55;20105;-72
2021/04/17 02:14:06;;;;;;;2.85;0.80;;;;;;;2.00;59.30;102778.03;2587759;55;20146;-72
2021/04/17 02:16:41;;;;;;;1.58;0.93;;;;;;;1.96;59.94;102778.94;2587758;55;20128;-72
2021/04/17 02:19:14;;;;;;;1.65;0.70;;;;;;;2.05;59.96;102776.25;2587720;55;20136;-70
2021/04/17 02:21:44;;;;;;;1.17;0.77;;;;;;;2.08;59.37;102778.00;2587504;55;20109;-72
2021/04/17 02:24:12;;;;;;;2.67;0.55;;;;;;;2.13;59.64;102773.56;2587376;55;20612;-72
2021/04/17 02:26:41;;;;;;;1.62;1.00;;;;;;;2.07;59.50;102777.12;2587833;55;20125;-70
2021/04/17 02:29:08;;;;;;;1.60;0.77;;;;;;;2.14;60.11;102771.81;2587450;55;20139;-70
2021/04/17 02:31:37;;;;;;;2.12;0.60;;;;;;;2.15;59.83;102776.19;2587627;55;20123;-71
2021/04/17 02:34:05;;;;;;;2.25;0.90;;;;;;;2.08;60.31;102776.22;2587405;55;20139;-72
2021/04/17 02:36:32;;;;;;;0.50;0.45;;;;;;;2.07;60.23;102771.84;2588221;55;20169;-70
2021/04/17 02:39:00;;;;;;;1.58;0.75;;;;;;;1.96;61.24;102778.09;2588127;55;20154;-72
2021/04/17 02:41:27;;;;;;;2.17;0.73;;;;;;;1.93;60.79;102777.19;2588439;55;20134;-71
2021/04/17 02:43:54;;;;;;;3.15;0.65;;;;;;;1.91;61.61;102770.22;2588502;55;20116;-70
2021/04/17 02:46:22;;;;;;;0.93;0.60;;;;;;;1.82;61.80;102760.59;2588125;55;20104;-70
2021/04/17 02:48:50;;;;;;;1.17;0.57;;;;;;;1.87;61.72;102779.00;2588328;55;20128;-71
2021/04/17 02:51:17;;;;;;;2.58;0.80;;;;;;;1.84;62.32;102773.75;2588501;55;20125;-71
2021/04/17 02:53:46;;;;;;;2.10;0.95;;;;;;;1.80;62.58;102779.03;2588225;55;20168;-72
2021/04/17 02:56:13;;;;;;;1.60;0.90;;;;;;;1.82;63.27;102778.16;2588461;55;20619;-70
2021/04/17 02:58:40;;;;;;;2.12;0.90;;;;;;;1.76;62.99;102774.66;2588403;55;20128;-72
2021/04/17 03:01:08;;;;;;;2.40;1.10;;;;;;;1.74;63.56;102778.16;2588031;55;20125;-72
2021/04/17 03:03:35;;;;;;;2.85;0.90;;;;;;;1.70;63.52;102773.81;2588338;55;20136;-72
2021/04/17 03:06:04;;;;;;;2.10;0.82;;;;;;;1.62;64.68;102768.59;2588536;55;20112;-72
2021/04/17 03:08:32;;;;;;;2.65;0.85;;;;;;;1.65;64.30;102776.47;2587996;55;20121;-71
2021/04/17 03:10:59;;;;;;;2.35;0.77;;;;;;;1.68;63.85;102771.19;2588140;55;20137;-70
2021/04/17 03:13:27;;;;;;;1.52;0.73;;;;;;;1.66;64.72;102770.31;2588313;55;20733;-72
2021/04/17 03:15:54;;;;;;;4.47;0.77;;;;;;;1.69;64.62;102777.34;2588291;55;20100;-70
2021/04/17 03:18:22;;;;;;;1.10;0.90;;;;;;;1.66;65.28;102771.22;2588361;55;20605;-72
2021/04/17 03:20:50;;;;;;;1.05;0.60;;;;;;;1.66;64.51;102772.97;2588338;55;20138;-72
2021/04/17 03:23:18;;;;;;;1.05;0.75;;;;;;;1.67;64.80;102779.97;2587941;55;20134;-72
2021/04/17 03:25:45;;;;;;;1.85;0.90;;;;;;;1.75;64.02;102764.12;2588559;55;20127;-72
2021/04/17 03:28:13;;;;;;;2.65;0.70;;;;;;;1.79;64.39;102772.00;2588349;55;20555;-72
2021/04/17 03:30:41;;;;;;;1.10;0.60;;;;;;;1.84;64.01;102771.12;2588107;55;20138;-72
2021/04/17 03:33:08;;;;;;;9.43;3.80;;;;;;;1.92;64.06;102779.84;2588347;55;20132;-70
2021/04/17 03:35:35;;;;;;;1.12;0.82;;;;;;;1.98;64.53;102774.53;2588186;55;20122;-70
2021/04/17 03:38:03;;;;;;;1.25;0.70;;;;;;;2.07;63.67;102777.12;2588121;55;20129;-70
2021/04/17 03:40:32;;;;;;;1.40;1.00;;;;;;;2.19;62.92;102772.66;2588222;55;20120;-70
2021/04/17 03:43:00;;;;;;;1.33;0.77;;;;;;;2.32;63.45;102776.97;2588080;55;20132;-70
2021/04/17 03:45:29;;;;;;;1.58;0.90;;;;;;;2.53;61.96;102777.69;2588070;55;20097;-70
2021/04/17 03:47:56;;;;;;;2.25;0.80;;;;;;;2.72;60.57;102769.63;2587880;55;20122;-72
2021/04/17 03:50:24;;;;;;;1.58;0.77;;;;;;;2.96;59.08;102772.87;2588388;55;20130;-71
2021/04/17 03:52:51;;;;;;;2.47;1.40;;;;;;;3.05;59.43;102768.38;2587971;55;20134;-70
2021/04/17 03:55:18;;;;;;;2.97;1.40;;;;;;;3.30;58.65;102775.16;2588176;55;20108;-72
2021/04/17 03:57:47;;;;;;;2.72;1.45;;;;;;;3.42;58.24;102775.03;2587968;55;20116;-72
2021/04/17 04:00:19;;;;;;;2.90;0.95;;;;;;;3.55;57.07;102770.44;2588138;55;20101;-70
2021/04/17 04:02:47;;;;;;;2.10;1.00;;;;;;;3.72;56.87;102766.72;2588407;55;20124;-72
2021/04/17 04:05:15;;;;;;;2.00;1.02;;;;;;;3.91;55.75;102772.66;2588307;55;20142;-72
2021/04/17 04:07:43;;;;;;;1.23;1.00;;;;;;;4.04;55.56;102768.03;2588041;55;20670;-72
2021/04/17 04:10:12;;;;;;;3.45;0.90;;;;;;;4.20;54.43;102767.81;2588119;55;20124;-72
2021/04/17 04:12:40;;;;;;;2.28;0.90;;;;;;;4.36;53.63;102765.81;2587696;55;20139;-71
2021/04/17 04:15:09;;;;;;;1.87;0.90;;;;;;;4.49;54.28;102775.25;2588037;55;20113;-70
2021/04/17 04:17:37;;;;;;;3.15;1.42;;;;;;;4.57;53.51;102770.72;2587974;55;20125;-72
2021/04/17 04:20:06;;;;;;;1.60;1.05;;;;;;;4.72;52.61;102766.09;2588267;55;20187;-72
2021/04/17 04:22:34;;;;;;;2.72;1.08;;;;;;;4.94;52.94;102773.62;2587814;55;20115;-71
2021/04/17 04:25:02;;;;;;;1.10;0.82;;;;;;;5.00;51.59;102773.50;2587825;55;20128;-71
2021/04/17 04:27:29;;;;;;;2.92;1.10;;;;;;;5.06;51.16;102780.44;2588035;55;20132;-72
2021/04/17 04:29:57;;;;;;;2.45;1.30;;;;;;;5.17;50.19;102777.62;2588014;55;20118;-71
2021/04/17 04:32:25;;;;;;;3.42;1.48;;;;;;;5.28;50.35;102775.63;2588172;55;20194;-71
2021/04/17 04:34:52;;;;;;;1.85;1.33;;;;;;;5.39;49.95;102781.56;2588317;55;20116;-71
2021/04/17 04:37:20;;;;;;;2.12;1.10;;;;;;;5.50;49.09;102775.19;2587600;55;20717;-72
2021/04/17 04:39:47;;;;;;;2.50;1.20;;;;;;;5.57;48.65;102772.41;2588202;55;20101;-71
2021/04/17 04:42:14;;;;;;;4.37;1.33;;;;;;;5.74;48.47;102779.09;2588175;55;20128;-72
2021/04/17 04:44:42;;;;;;;4.80;1.90;;;;;;;5.99;48.88;102789.16;2587894;55;20112;-72
2021/04/17 04:47:09;;;;;;;5.85;1.05;;;;;;;6.09;47.05;102788.06;2588059;55;20176;-70
2021/04/17 04:49:37;;;;;;;3.15;1.55;;;;;;;6.22;46.06;102791.31;2588016;55;20109;-71
2021/04/17 04:52:05;;;;;;;3.78;1.52;;;;;;;6.33;46.13;102791.03;2587985;55;20722;-72
2021/04/17 04:54:33;;;;;;;4.87;1.33;;;;;;;6.49;45.52;102795.97;2587903;55;20131;-72
2021/04/17 04:57:00;;;;;;;2.75;1.08;;;;;;;6.62;46.04;102801.88;2588366;55;20128;-72
2021/04/17 04:59:27;;;;;;;1.27;1.00;;;;;;;6.76;45.02;102797.06;2587936;55;20143;-72
2021/04/17 05:01:55;;;;;;;5.72;1.00;;;;;;;6.91;44.47;102801.09;2587819;55;20109;-71
2021/04/17 05:04:22;;;;;;;5.78;1.58;;;;;;;7.05;45.20;102805.16;2588038;55;20181;-72
2021/04/17 05:06:50;;;;;;;5.97;1.42;;;;;;;7.14;44.44;102804.06;2587917;55;20101;-70
2021/04/17 05:09:18;;;;;;;4.05;1.90;;;;;;;7.09;44.18;102799.72;2588205;55;20401;-72
2021/04/17 05:11:45;;;;;;;4.50;1.37;;;;;;;7.25;43.37;102809.94;2588180;55;20120;-71
2021/04/17 05:14:13;;;;;;;3.20;1.40;;;;;;;7.42;41.91;102804.16;2587614;55;20142;-70
2021/04/17 05:16:40;;;;;;;3.33;1.50;;;;;;;7.31;42.18;102804.44;2587717;55;20117;-70
2021/04/17 05:19:07;;;;;;;3.28;1.50;;;;;;;7.29;42.52;102800.97;2587987;55;20124;-70
2021/04/17 05:21:35;;;;;;;2.85;1.40;;;;;;;7.47;42.36;102814.62;2587944;55;20891;-70
2021/04/17 05:24:03;;;;;;;2.35;1.02;;;;;;;7.61;41.47;102804.47;2587879;55;20124;-71
2021/04/17 05:26:31;;;;;;;2.83;1.17;;;;;;;7.73;41.25;102811.22;2587832;55;20124;-71
2021/04/17 05:28:59;;;;;;;2.03;1.08;;;;;;;7.81;41.07;102808.31;2587914;55;20124;-72
2021/04/17 05:31:27;;;;;;;1.83;1.08;;;;;;;7.90;42.92;102812.50;2587879;55;20108;-71
2021/04/17 05:33:55;;;;;;;3.12;1.50;;;;;;;8.16;41.15;102810.81;2587847;55;20239;-71
2021/04/17 05:36:22;;;;;;;4.43;1.37;;;;;;;8.30;39.93;102810.38;2588075;55;20117;-71
2021/04/17 05:38:52;;;;;;;2.62;1.00;;;;;;;8.33;38.92;102805.84;2587674;55;20135;-71
2021/04/17 05:41:20;;;;;;;1.77;0.77;;;;;;;8.41;39.09;102810.03;2587879;55;20170;-70
2021/04/17 05:43:47;;;;;;;6.68;1.30;;;;;;;8.39;39.36;102810.09;2587781;55;20150;-71
2021/04/17 05:46:15;;;;;;;5.22;1.25;;;;;;;8.53;39.32;102811.47;2587781;55;20117;-71
2021/04/17 05:48:42;;;;;;;4.07;2.25;;;;;;;8.47;38.17;102816.03;2587855;55;20112;-71
2021/04/17 05:51:09;;;;;;;2.75;1.67;;;;;;;8.51;38.32;102819.50;2587596;55;20131;-68
2021/04/17 05:53:37;;;;;;;1.92;1.15;;;;;;;8.52;38.45;102815.03;2587775;55;20127;-68
2021/04/17 05:56:05;;;;;;;2.90;1.10;;;;;;;8.62;37.93;102821.81;2588016;55;20131;-70
2021/04/17 05:58:33;;;;;;;11.10;1.10;;;;;;;8.80;37.57;102808.78;2587960;55;20105;-71
2021/04/17 06:01:01;;;;;;;4.40;1.45;;;;;;;8.94;38.20;102821.62;2587369;55;20131;-72
2021/04/17 06:03:28;;;;;;;2.37;1.23;;;;;;;9.09;37.45;102820.22;2587612;55;20518;-69
2021/04/17 06:05:55;;;;;;;5.00;1.10;;;;;;;9.28;36.71;102815.12;2587981;55;20534;-71
2021/04/17 06:08:23;;;;;;;2.33;1.08;;;;;;;9.47;36.55;102809.97;2587453;55;20124;-72
2021/04/17 06:10:50;;;;;;;2.05;1.00;;;;;;;9.55;35.86;102817.69;2587568;55;20116;-71
2021/04/17 06:13:17;;;;;;;1.40;0.82;;;;;;;9.63;34.75;102814.75;2587715;55;20116;-73
2021/04/17 06:15:45;;;;;;;2.15;0.90;;;;;;;9.54;35.83;102815.94;2587693;55;20643;-71
2021/04/17 06:18:13;;;;;;;2.22;1.02;;;;;;;9.70;36.17;102827.78;2587700;55;20514;-70
2021/04/17 06:20:41;;;;;;;2.62;1.40;;;;;;;9.88;35.08;102826.19;2588027;55;20135;-71
2021/04/17 06:23:09;;;;;;;2.62;1.00;;;;;;;9.94;35.86;102829.56;2586757;55;20134;-71
2021/04/17 06:25:36;;;;;;;2.80;1.40;;;;;;;10.05;35.41;102816.69;2587085;55;20105;-71
2021/04/17 06:28:04;;;;;;;1.50;0.90;;;;;;;10.22;34.11;102812.44;2586087;55;20150;-71
2021/04/17 06:30:31;;;;;;;4.45;1.42;;;;;;;10.31;34.72;102817.41;2587240;55;20117;-71
2021/04/17 06:33:00;;;;;;;5.10;1.20;;;;;;;10.46;33.84;102820.44;2587618;55;20124;-71
2021/04/17 06:35:27;;;;;;;3.08;1.25;;;;;;;10.55;34.08;102820.06;2587864;55;20109;-70
2021/04/17 06:37:54;;;;;;;2.42;1.00;;;;;;;10.56;33.67;102817.31;2587200;55;20140;-71
2021/04/17 06:40:22;;;;;;;5.95;1.30;;;;;;;10.68;35.69;102820.41;2587712;55;20573;-71
2021/04/17 06:42:52;;;;;;;4.10;1.50;;;;;;;10.87;34.69;102812.47;2587558;55;20121;-71
2021/04/17 06:45:22;;;;;;;7.80;1.40;;;;;;;10.94;33.25;102827.31;2587457;55;20134;-71
2021/04/17 06:47:50;;;;;;;1.90;1.20;;;;;;;11.00;33.87;102813.66;2587784;55;20113;-70
2021/04/17 06:50:19;;;;;;;2.97;1.55;;;;;;;11.02;33.35;102800.25;2587428;55;20131;-70
2021/04/17 06:52:48;;;;;;;6.62;1.50;;;;;;;11.33;32.70;102824.75;2587228;55;20553;-71
2021/04/17 06:55:15;;;;;;;5.62;1.90;;;;;;;11.56;34.00;102826.37;2587903;55;20134;-71
2021/04/17 06:57:44;;;;;;;2.40;1.45;;;;;;;11.79;32.26;102836.00;2587404;55;20125;-71
2021/04/17 07:00:13;;;;;;;4.85;2.20;;;;;;;11.77;32.75;102804.91;2587455;55;20509;-71
2021/04/17 07:02:42;;;;;;;5.57;1.50;;;;;;;11.83;32.20;102832.25;2587440;55;20630;-71
2021/04/17 07:05:10;;;;;;;4.22;1.65;;;;;;;11.89;32.59;102820.41;2587592;55;20660;-71
2021/04/17 07:07:38;;;;;;;4.10;2.05;;;;;;;12.04;32.35;102817.97;2587443;55;20142;-71
2021/04/17 07:10:06;;;;;;;5.90;2.08;;;;;;;12.17;31.97;102812.87;2587779;55;20117;-71
2021/04/17 07:12:34;;;;;;;3.17;1.45;;;;;;;12.17;30.16;102815.56;2587420;55;20120;-71
2021/04/17 07:15:05;;;;;;;4.07;1.87;;;;;;;12.13;31.84;102812.16;2587429;55;20120;-71
2021/04/17 07:17:33;;;;;;;3.17;1.67;;;;;;;12.24;32.61;102809.81;2587455;55;20132;-71
2021/04/17 07:20:02;;;;;;;3.42;1.10;;;;;;;12.27;32.65;102807.94;2587538;55;20117;-71
2021/04/17 07:22:31;;;;;;;2.62;1.33;;;;;;;12.42;31.72;102814.34;2587666;55;20131;-71
2021/04/17 07:25:17;;;;;;;3.50;1.80;;;;;;;12.52;31.89;102812.94;2588353;55;20609;-71
2021/04/17 07:27:46;;;;;;;3.53;1.17;;;;;;;12.52;30.21;102811.12;2587695;55;20125;-71
2021/04/17 07:30:30;;;;;;;4.37;1.42;;;;;;;12.55;31.01;102817.28;2588545;55;20112;-71
2021/04/17 07:33:06;;;;;;;2.87;1.10;;;;;;;12.68;31.28;102812.19;2587615;55;20143;-71
2021/04/17 07:35:36;;;;;;;7.65;3.90;;;;;;;12.65;31.21;102818.53;2588159;55;20124;-71
2021/04/17 07:38:13;;;;;;;2.22;1.62;;;;;;;12.66;31.28;102821.16;2588364;55;20117;-71
2021/04/17 07:40:42;;;;;;;3.35;1.40;;;;;;;12.65;30.22;102818.53;2587753;55;20127;-71
2021/04/17 07:43:09;;;;;;;2.75;1.92;;;;;;;12.68;31.82;102823.78;2587988;55;20121;-71
2021/04/17 07:45:38;;;;;;;5.90;1.40;;;;;;;12.80;29.98;102827.63;2588363;55;20112;-71
2021/04/17 07:48:26;;;;;;;2.72;1.30;;;;;;;13.22;30.04;102823.63;2588052;55;20626;-71
2021/04/17 07:50:54;;;;;;;3.12;1.35;;;;;;;13.00;30.72;102817.69;2588129;55;20123;-71
2021/04/17 07:53:27;;;;;;;3.60;2.25;;;;;;;12.99;30.01;102827.56;2587969;55;20116;-71
2021/04/17 07:55:55;;;;;;;2.67;1.60;;;;;;;13.21;29.48;102813.88;2588301;55;20131;-71
2021/04/17 07:58:23;;;;;;;4.35;1.40;;;;;;;13.37;29.37;102821.09;2587828;55;20132;-71
2021/04/17 08:00:51;;;;;;;1.85;0.93;;;;;;;13.39;28.40;102816.53;2588091;55;20767;-71
2021/04/17 08:03:23;;;;;;;1.92;1.10;;;;;;;13.38;28.96;102817.47;2587926;55;20168;-70
2021/04/17 08:05:50;;;;;;;;;;;;;;;13.52;27.96;102816.75;2588529;55;20119;-71
2021/04/17 08:08:18;;;;;;;0.80;0.70;;;;;;;13.36;27.91;102830.09;2588226;55;20003;-71
2021/04/17 08:10:46;;;;;;;4.20;0.90;;;;;;;13.26;28.24;102813.63;2583276;55;20113;-71
2021/04/17 08:13:17;;;;;;;1.23;0.80;;;;;;;13.41;27.72;102819.97;2587989;55;20125;-71
2021/04/17 08:15:44;;;;;;;4.40;1.85;;;;;;;13.37;27.90;102821.09;2587857;55;20124;-71
2021/04/17 08:18:18;;;;;;;3.95;1.98;;;;;;;13.41;28.15;102822.66;2588489;55;20109;-71
2021/04/17 08:20:47;;;;;;;3.92;1.30;;;;;;;13.53;27.75;102820.28;2582732;55;20108;-71
2021/04/17 08:23:18;;;;;;;1.98;1.10;;;;;;;13.48;27.03;102816.06;2588279;55;20121;-71
2021/04/17 08:25:45;;;;;;;1.67;1.00;;;;;;;13.67;27.69;102809.69;2588463;55;20658;-71
2021/04/17 08:28:19;;;;;;;1.60;1.10;;;;;;;13.71;27.81;102805.03;2587691;55;20104;-71
2021/04/17 08:30:47;;;;;;;2.72;1.35;;;;;;;13.83;28.24;102807.00;2588358;55;20517;-71
2021/04/17 08:33:16;;;;;;;2.87;1.23;;;;;;;13.89;27.53;102805.81;2588135;55;20621;-72
2021/04/17 08:35:43;;;;;;;1.05;0.60;;;;;;;13.95;24.84;102805.47;2587739;55;20162;-72
2021/04/17 08:38:12;;;;;;;5.72;2.33;;;;;;;13.90;27.18;102799.47;2588093;55;20128;-71
2021/04/17 08:40:55;;;;;;;3.75;2.10;;;;;;;13.77;27.44;102800.19;2587873;55;20515;-72
2021/04/17 08:43:32;;;;;;;3.10;1.40;;;;;;;13.84;27.38;102797.16;2587333;55;20132;-72
2021/04/17 08:46:08;;;;;;;3.25;1.83;;;;;;;14.06;27.00;102802.16;2588339;55;20120;-72
2021/04/17 08:48:44;;;;;;;3.22;1.42;;;;;;;14.08;26.57;102812.81;2588025;55;20500;-71
2021/04/17 08:51:42;;;;;;;2.45;1.35;;;;;;;14.05;26.88;102792.37;2587874;55;20126;-72
2021/04/17 08:54:22;;;;;;;6.87;3.22;;;;;;;14.20;26.31;102793.31;2587999;55;20113;-72
2021/04/17 08:56:55;;;;;;;7.18;3.25;;;;;;;14.15;26.06;102792.72;2587734;55;20638;-71
2021/04/17 08:59:34;;;;;;;3.37;1.67;;;;;;;14.04;26.26;102793.34;2588359;55;23059;-71
2021/04/17 09:02:09;;;;;;;4.68;1.90;;;;;;;13.94;26.06;102782.28;2588293;55;20220;-72
2021/04/17 09:05:02;;;;;;;3.60;1.42;;;;;;;14.03;25.85;102787.13;2587464;55;20104;-72
2021/04/17 09:07:32;;;;;;;2.80;1.30;;;;;;;13.94;24.90;102787.62;2588394;55;20104;-72
2021/04/17 09:10:31;;;;;;;4.57;1.83;;;;;;;13.99;25.09;102785.53;2587971;55;20121;-72
2021/04/17 09:13:32;;;;;;;6.10;2.25;;;;;;;14.16;26.13;102776.53;2587938;55;20140;-72
2021/04/17 09:16:04;;;;;;;3.45;2.10;;;;;;;14.42;25.13;102782.19;2584104;55;20124;-71
2021/04/17 09:18:44;;;;;;;2.10;0.93;;;;;;;14.60;24.28;102777.53;2587485;55;20127;-72
2021/04/17 09:21:36;;;;;;;4.00;1.75;;;;;;;14.61;26.14;102775.75;2588318;55;20125;-72
2021/04/17 09:24:04;;;;;;;;;;;;;;;14.67;25.46;102785.25;2582912;55;20135;-72
2021/04/17 09:26:37;;;;;;;3.33;1.80;;;;;;;14.49;26.48;102777.31;2587365;55;20000;-72
2021/04/17 09:29:25;;;;;;;3.87;2.08;;;;;;;14.45;26.64;102768.59;2587838;55;20115;-71
2021/04/17 09:32:04;;;;;;;8.23;3.20;;;;;;;14.39;25.20;102776.13;2588503;55;20116;-71
2021/04/17 09:34:38;;;;;;;4.57;2.97;;;;;;;14.52;27.44;102777.12;2587807;55;20516;-72
2021/04/17 09:37:11;;;;;;;9.38;4.45;;;;;;;14.85;28.58;102776.13;2588135;55;20771;-72
2021/04/17 09:39:45;;;;;;;6.78;3.70;;;;;;;15.09;26.91;102775.56;2587866;55;20603;-71
2021/04/17 09:42:12;;;;;;;5.03;2.67;;;;;;;15.02;27.13;102775.06;2582436;55;20113;-71
2021/04/17 09:44:44;;;;;;;8.68;3.90;;;;;;;15.02;26.91;102777.75;2587603;55;20113;-71
2021/04/17 09:47:15;;;;;;;7.45;2.00;;;;;;;15.15;26.41;102780.56;2587811;55;20487;-72
2021/04/17 09:49:45;;;;;;;3.80;2.50;;;;;;;14.88;26.77;102775.91;2587945;55;20120;-72
2021/04/17 09:52:19;;;;;;;5.78;4.40;;;;;;;15.01;28.02;102783.22;2588020;55;20121;-71
2021/04/17 09:54:48;;;;;;;2.85;2.35;;;;;;;14.99;27.74;102777.97;2587792;55;20117;-72
2021/04/17 09:57:16;;;;;;;4.10;2.30;;;;;;;15.00;27.08;102771.63;2587722;55;20120;-72
2021/04/17 09:59:52;;;;;;;5.70;1.67;;;;;;;14.91;27.03;102774.00;2587842;55;20615;-72
2021/04/17 10:02:40;;;;;;;2.25;1.37;;;;;;;14.88;27.45;102766.97;2587719;55;20120;-71
2021/04/17 10:05:11;;;;;;;3.15;1.52;;;;;;;14.84;28.95;102766.31;2587537;55;20124;-72
2021/04/17 10:07:43;;;;;;;4.22;1.60;;;;;;;14.93;27.88;102777.44;2587842;55;20511;-71
2021/04/17 10:10:12;;;;;;;4.22;1.50;;;;;;;14.80;27.87;102767.44;2587875;55;20112;-71
2021/04/17 10:12:49;;;;;;;6.00;4.45;;;;;;;14.93;27.85;102772.94;2587632;55;20131;-72
2021/04/17 10:15:22;;;;;;;3.45;1.23;;;;;;;14.64;27.84;102777.38;2587821;55;20120;-71
2021/04/17 10:17:52;;;;;;;3.40;1.52;;;;;;;14.67;28.10;102774.50;2582252;55;20629;-72
2021/04/17 10:20:20;;;;;;;4.28;1.62;;;;;;;14.73;28.50;102763.41;2587944;55;20134;-72
2021/04/17 10:22:52;;;;;;;2.28;1.12;;;;;;;14.91;27.59;102776.69;2587550;55;20147;-72
2021/04/17 10:25:36;;;;;;;3.47;2.25;;;;;;;14.82;27.69;102752.09;2587751;55;20120;-71
2021/04/17 10:28:11;;;;;;;7.57;4.87;;;;;;;14.79;28.13;102771.09;2582130;55;20477;-71
2021/04/17 10:30:40;;;;;;;3.53;1.27;;;;;;;14.61;29.15;102751.56;2587450;55;20128;-71
2021/04/17 10:33:16;;;;;;;1.95;0.93;;;;;;;14.80;27.81;102758.53;2587505;55;20116;-72
2021/04/17 10:35:44;;;;;;;3.03;1.37;;;;;;;14.78;27.89;102764.00;2587589;55;20121;-71
2021/04/17 10:38:23;;;;;;;4.37;1.60;;;;;;;14.86;27.64;102768.91;2587673;55;20717;-71
2021/04/17 10:40:51;;;;;;;3.40;1.50;;;;;;;14.57;29.43;102760.75;2587551;55;20138;-71
2021/04/17 10:43:20;;;;;;;3.97;1.25;;;;;;;14.53;27.63;102759.22;2587487;55;20649;-71
2021/04/17 10:45:50;;;;;;;2.75;1.10;;;;;;;14.72;27.14;102757.19;2587804;55;20626;-71
2021/04/17 10:48:23;;;;;;;3.40;1.00;;;;;;;14.74;28.29;102757.94;2582263;55;20117;-71
2021/04/17 10:50:58;;;;;;;2.53;1.08;;;;;;;14.72;27.70;102761.63;2587741;55;20104;-72
2021/04/17 10:53:28;;;;;;;9.50;4.25;;;;;;;14.64;27.25;102766.63;2587599;55;20108;-71
2021/04/17 10:56:00;;;;;;;15.32;5.68;;;;;;;14.54;27.04;102758.25;2587070;55;20113;-71
2021/04/17 10:58:31;;;;;;;2.22;1.05;;;;;;;14.61;28.18;102749.72;2588776;55;20124;-72
2021/04/17 11:01:01;;;;;;;6.37;1.70;;;;;;;14.58;27.75;102760.66;2583430;55;20160;-71
2021/04/17 11:03:31;;;;;;;51.45;20.62;;;;;;;14.74;26.86;102770.53;2587986;55;20104;-71
2021/04/17 11:06:11;;;;;;;6.60;3.00;;;;;;;14.78;27.47;102764.00;2588433;55;20105;-71
2021/04/17 11:08:39;;;;;;;5.03;1.90;;;;;;;14.58;28.61;102760.66;2588613;55;20124;-71
2021/04/17 11:11:11;;;;;;;6.68;4.30;;;;;;;14.55;27.96;102755.47;2588263;55;20136;-72
2021/04/17 11:13:41;;;;;;;10.68;5.43;;;;;;;14.33;27.60;102734.41;2588784;55;20135;-71
2021/04/17 11:16:11;;;;;;;7.07;1.30;;;;;;;14.52;28.44;102755.66;2588475;55;20130;-71
2021/04/17 11:18:40;;;;;;;7.00;3.05;;;;;;;14.58;26.68;102749.91;2587929;55;20128;-71
2021/04/17 11:21:16;;;;;;;8.18;2.20;;;;;;;14.66;28.35;102741.38;2588597;55;20123;-71
2021/04/17 11:23:47;;;;;;;2.47;1.12;;;;;;;14.68;28.05;102741.31;2588205;55;20151;-71
2021/04/17 11:26:18;;;;;;;1.75;1.37;;;;;;;14.69;26.05;102743.03;2588229;55;20108;-71
2021/04/17 11:28:47;;;;;;;4.30;1.63;;;;;;;14.77;26.44;102754.22;2588226;55;20117;-71
2021/04/17 11:31:17;;;;;;;4.75;2.78;;;;;;;14.84;28.64;102744.81;2588064;55;20119;-72
2021/04/17 11:33:47;;;;;;;4.75;2.30;;;;;;;14.83;27.68;102748.47;2588171;55;20603;-71
2021/04/17 11:36:15;;;;;;;2.67;1.00;;;;;;;14.62;26.35;102745.22;2588294;55;20116;-71
2021/04/17 11:38:42;;;;;;;4.15;1.35;;;;;;;14.31;27.12;102742.53;2588432;55;20733;-71
2021/04/17 11:41:10;;;;;;;5.50;2.20;;;;;;;14.33;29.08;102746.03;2588225;55;20120;-72
2021/04/17 11:43:38;;;;;;;2.20;1.70;;;;;;;14.25;26.37;102731.31;2587976;55;20097;-72